Menu Close Menu
Station Historical Data
Daily Summary for April 21, 2017 Units:  English    Metric   Both
« Previous Day
Next Day »
Daily Weekly Monthly Yearly Custom
  High: Low: Average:
Temperature: 86.8 °F 62.9 °F 74.3 °F
Dew Point: 64.0 °F 56.9 °F 60.2 °F
Humidity: 92% 39% 64%
Wind Speed: 2.0mph 0.0mph 0.1mph
Wind Gust: 6.0mph - -
Wind- - West
Pressure: 30.08 in 29.88 in -
Precipitation: 0.00 in    
Historical Graphs
 
 
Tabular Data for April 21, 2017
Time Temperature Dew Point Pressure Wind Wind Speed Wind Gust Humidity Rainfall Rate (Hourly) solar Conditions
00:00 69.0 °F 62.9 °F 30.07 in Calm     81% 0.00 in WeatherDisplay:10.37 W/m2 SCT
00:15 68.7 °F 62.7 °F 30.07 in Calm     81% 0.00 in WeatherDisplay:10.37 W/m2 SCT
00:30 68.8 °F 62.7 °F 30.07 in Calm   1.0 mph 81% 0.00 in WeatherDisplay:10.37 W/m2 SCT
00:45 68.7 °F 62.6 °F 30.07 in Calm     81% 0.00 in WeatherDisplay:10.37 W/m2 SCT
01:00 68.4 °F 62.7 °F 30.08 in Calm     82% 0.00 in WeatherDisplay:10.37 W/m2 SCT
01:15 68.8 °F 62.7 °F 30.08 in Calm     81% 0.00 in WeatherDisplay:10.37 W/m2 SCT
01:30 68.7 °F 62.6 °F 30.07 in Calm     81% 0.00 in WeatherDisplay:10.37 W/m2 SCT
01:45 68.4 °F 62.7 °F 30.06 in Calm     82% 0.00 in WeatherDisplay:10.37 W/m2 SCT
02:00 68.3 °F 62.9 °F 30.05 in Calm     83% 0.00 in WeatherDisplay:10.37 W/m2 SCT
02:15 67.7 °F 62.3 °F 30.05 in Calm   1.0 mph 83% 0.00 in WeatherDisplay:10.37 W/m2 SCT
02:30 66.9 °F 62.2 °F 30.04 in Calm     85% 0.00 in WeatherDisplay:10.37 W/m2 SCT
02:45 66.5 °F 61.9 °F 30.04 in Calm     85% 0.00 in WeatherDisplay:10.37 W/m2 SCT
03:00 66.1 °F 61.8 °F 30.04 in Calm     86% 0.00 in WeatherDisplay:10.37 W/m2 SCT
03:15 64.8 °F 60.5 °F 30.03 in Calm     86% 0.00 in WeatherDisplay:10.37 W/m2 SCT
03:30 64.8 °F 60.5 °F 30.04 in Calm     86% 0.00 in WeatherDisplay:10.37 W/m2 SCT
03:45 64.8 °F 60.5 °F 30.03 in Calm     86% 0.00 in WeatherDisplay:10.37 W/m2 SCT
04:00 64.8 °F 60.5 °F 30.03 in Calm     86% 0.00 in WeatherDisplay:10.37 W/m2 SCT
04:15 64.8 °F 60.5 °F 30.03 in Calm     86% 0.00 in WeatherDisplay:10.37 W/m2 SCT
04:30 64.8 °F 60.5 °F 30.03 in Calm     86% 0.00 in WeatherDisplay:10.37 W/m2 SCT
04:45 64.8 °F 60.5 °F 30.03 in Calm     86% 0.00 in WeatherDisplay:10.37 W/m2 SCT
05:00 64.8 °F 60.5 °F 30.03 in Calm     86% 0.00 in WeatherDisplay:10.37 W/m2 SCT
05:15 64.8 °F 60.5 °F 30.03 in Calm     86% 0.00 in WeatherDisplay:10.37 W/m2 SCT
05:30 64.8 °F 60.5 °F 30.02 in Calm     86% 0.00 in WeatherDisplay:10.37 W/m2 SCT
05:45 64.8 °F 60.5 °F 30.03 in Calm     86% 0.00 in WeatherDisplay:10.37 W/m2 SCT
06:00 64.8 °F 60.5 °F 30.03 in Calm     86% 0.00 in WeatherDisplay:10.37 W/m2 SCT
06:15 64.8 °F 60.5 °F 30.03 in Calm     86% 0.00 in WeatherDisplay:10.37 W/m2 SCT
06:30 64.8 °F 60.5 °F 30.03 in Calm     86% 0.00 in WeatherDisplay:10.37 W/m2 SCT
06:45 64.8 °F 60.5 °F 30.03 in Calm     86% 0.00 in WeatherDisplay:10.37 W/m2 SCT
07:00 64.8 °F 60.5 °F 30.03 in Calm     86% 0.00 in WeatherDisplay:10.37 W/m2 SCT
07:15 64.8 °F 60.5 °F 30.04 in Calm     86% 0.00 in WeatherDisplay:10.37 W/m2 SCT
07:30 64.8 °F 60.5 °F 30.04 in Calm     86% 0.00 in WeatherDisplay:10.37 W/m2 SCT
07:45 64.8 °F 60.5 °F 30.04 in Calm     86% 0.00 in WeatherDisplay:10.37 W/m2 SCT
08:00 62.9 °F 60.5 °F 30.05 in Calm     92% 0.00 in WeatherDisplay:10.37 W/m2 SCT
08:15 64.3 °F 61.9 °F 30.05 in Calm     92% 0.00 in WeatherDisplay:10.37 W/m2 SCT
08:30 66.1 °F 62.7 °F 30.04 in Calm     89% 0.00 in WeatherDisplay:10.37 W/m2 SCT
08:45 67.6 °F 62.9 °F 30.04 in Calm   1.0 mph 85% 0.00 in WeatherDisplay:10.37 W/m2 SCT
09:00 70.7 °F 63.5 °F 30.04 in Calm     78% 0.00 in WeatherDisplay:10.37 W/m2 SCT
09:15 73.5 °F 64.0 °F 30.03 in Calm     72% 0.00 in WeatherDisplay:10.37 W/m2 SCT
09:30 74.9 °F 63.2 °F 30.03 in Calm   1.0 mph 67% 0.00 in WeatherDisplay:10.37 W/m2 SCT
09:45 76.2 °F 62.7 °F 30.03 in Calm   2.0 mph 63% 0.00 in WeatherDisplay:10.37 W/m2 SCT
10:00 77.7 °F 61.7 °F 30.03 in WSW 1.0 mph 2.0 mph 58% 0.00 in WeatherDisplay:10.37 W/m2 SCT
10:15 79.0 °F 62.0 °F 30.03 in Calm   2.0 mph 56% 0.00 in WeatherDisplay:10.37 W/m2 SCT
10:30 79.7 °F 62.6 °F 30.03 in Calm   2.0 mph 56% 0.00 in WeatherDisplay:10.37 W/m2 SCT
10:45 79.6 °F 62.0 °F 30.03 in Calm   2.0 mph 55% 0.00 in WeatherDisplay:10.37 W/m2 SCT
11:00 79.8 °F 61.7 °F 30.03 in WSW 1.0 mph 3.0 mph 54% 0.00 in WeatherDisplay:10.37 W/m2 SCT
11:15 80.5 °F 59.6 °F 30.03 in SW 1.0 mph 5.0 mph 49% 0.00 in WeatherDisplay:10.37 W/m2 SCT
11:30 81.4 °F 60.4 °F 30.03 in Calm   2.0 mph 49% 0.00 in WeatherDisplay:10.37 W/m2 SCT
11:45 81.8 °F 60.2 °F 30.03 in Calm   3.0 mph 48% 0.00 in WeatherDisplay:10.37 W/m2 SCT
12:00 83.1 °F 62.0 °F 30.02 in Calm   2.0 mph 49% 0.00 in WeatherDisplay:10.37 W/m2 SCT
12:15 82.3 °F 60.0 °F 30.02 in Calm   6.0 mph 47% 0.00 in WeatherDisplay:10.37 W/m2 SCT
12:30 83.7 °F 59.5 °F 30.02 in SW 1.0 mph 5.0 mph 44% 0.00 in WeatherDisplay:10.37 W/m2 SCT
12:45 84.0 °F 58.4 °F 30.01 in WSW 1.0 mph 5.0 mph 42% 0.00 in WeatherDisplay:10.37 W/m2 SCT
13:00 84.4 °F 59.5 °F 30.01 in Calm   5.0 mph 43% 0.00 in WeatherDisplay:10.37 W/m2 SCT
13:15 83.4 °F 59.2 °F 30.00 in North 1.0 mph 3.0 mph 44% 0.00 in WeatherDisplay:10.37 W/m2 SCT
13:30 84.3 °F 60.1 °F 29.99 in West 2.0 mph 5.0 mph 44% 0.00 in WeatherDisplay:10.37 W/m2 SCT
13:45 83.8 °F 57.6 °F 29.98 in West 1.0 mph 2.0 mph 41% 0.00 in WeatherDisplay:10.37 W/m2 SCT
14:00 84.5 °F 58.8 °F 29.97 in Calm   1.0 mph 42% 0.00 in WeatherDisplay:10.37 W/m2 SCT
14:15 86.6 °F 60.1 °F 29.97 in Calm   2.0 mph 41% 0.00 in WeatherDisplay:10.37 W/m2 SCT
14:30 86.8 °F 58.9 °F 29.96 in NW 1.0 mph 3.0 mph 39% 0.00 in WeatherDisplay:10.37 W/m2 SCT
14:45 86.3 °F 58.4 °F 29.95 in Calm   2.0 mph 39% 0.00 in WeatherDisplay:10.37 W/m2 SCT
15:00 84.8 °F 58.5 °F 29.94 in Calm   2.0 mph 41% 0.00 in WeatherDisplay:10.37 W/m2 SCT
15:15 83.9 °F 59.7 °F 29.93 in Calm   5.0 mph 44% 0.00 in WeatherDisplay:10.37 W/m2 SCT
15:30 84.1 °F 57.2 °F 29.92 in Calm   3.0 mph 40% 0.00 in WeatherDisplay:10.37 W/m2 SCT
15:45 84.5 °F 57.5 °F 29.92 in Calm   2.0 mph 40% 0.00 in WeatherDisplay:10.37 W/m2 SCT
16:00 84.5 °F 56.9 °F 29.91 in NW 1.0 mph 2.0 mph 39% 0.00 in WeatherDisplay:10.37 W/m2 SCT
16:15 84.2 °F 58.6 °F 29.90 in Calm   2.0 mph 42% 0.00 in WeatherDisplay:10.37 W/m2 SCT
16:30 83.2 °F 58.4 °F 29.89 in Calm   1.0 mph 43% 0.00 in WeatherDisplay:10.37 W/m2 SCT
16:45 82.8 °F 59.3 °F 29.89 in Calm   1.0 mph 45% 0.00 in WeatherDisplay:10.37 W/m2 SCT
17:00 81.9 °F 59.7 °F 29.89 in Calm     47% 0.00 in WeatherDisplay:10.37 W/m2 SCT
17:15 81.9 °F 59.1 °F 29.88 in Calm   1.0 mph 46% 0.00 in WeatherDisplay:10.37 W/m2 SCT
17:30 83.7 °F 57.5 °F 29.88 in Calm   2.0 mph 41% 0.00 in WeatherDisplay:10.37 W/m2 SCT
17:45 84.4 °F 57.4 °F 29.89 in Calm   1.0 mph 40% 0.00 in WeatherDisplay:10.37 W/m2 SCT
18:00 83.1 °F 58.9 °F 29.88 in Calm   2.0 mph 44% 0.00 in WeatherDisplay:10.37 W/m2 SCT
18:15 82.7 °F 59.2 °F 29.89 in Calm   2.0 mph 45% 0.00 in WeatherDisplay:10.37 W/m2 SCT
18:30 82.0 °F 58.5 °F 29.89 in Calm   5.0 mph 45% 0.00 in WeatherDisplay:10.37 W/m2 SCT
18:45 81.3 °F 58.5 °F 29.89 in Calm   2.0 mph 46% 0.00 in WeatherDisplay:10.37 W/m2 SCT
19:00 80.5 °F 59.6 °F 29.89 in Calm   2.0 mph 49% 0.00 in WeatherDisplay:10.37 W/m2 SCT
19:15 79.8 °F 58.9 °F 29.89 in Calm   3.0 mph 49% 0.00 in WeatherDisplay:10.37 W/m2 SCT
19:30 79.1 °F 59.4 °F 29.89 in Calm   1.0 mph 51% 0.00 in WeatherDisplay:10.37 W/m2 SCT
19:45 78.1 °F 59.5 °F 29.89 in Calm   1.0 mph 53% 0.00 in WeatherDisplay:10.37 W/m2 SCT
20:00 77.1 °F 59.7 °F 29.89 in Calm     55% 0.00 in WeatherDisplay:10.37 W/m2 SCT
20:15 76.3 °F 60.0 °F 29.90 in Calm     57% 0.00 in WeatherDisplay:10.37 W/m2 SCT
20:30 75.5 °F 59.2 °F 29.90 in Calm     57% 0.00 in WeatherDisplay:10.37 W/m2 SCT
20:45 74.8 °F 59.0 °F 29.91 in Calm     58% 0.00 in WeatherDisplay:10.37 W/m2 SCT
21:00 73.9 °F 59.2 °F 29.91 in Calm     60% 0.00 in WeatherDisplay:10.37 W/m2 SCT
21:30 72.5 °F 58.7 °F 29.92 in Calm     62% 0.00 in WeatherDisplay:10.37 W/m2 SCT
21:45 71.9 °F 59.0 °F 29.92 in Calm     64% 0.00 in WeatherDisplay:10.37 W/m2 SCT
22:00 71.4 °F 58.5 °F 29.91 in Calm     64% 0.00 in WeatherDisplay:10.37 W/m2 SCT
22:15 70.9 °F 59.0 °F 29.91 in Calm     66% 0.00 in WeatherDisplay:10.37 W/m2 SCT
22:30 70.6 °F 58.3 °F 29.92 in Calm     65% 0.00 in WeatherDisplay:10.37 W/m2 SCT
22:45 70.3 °F 58.4 °F 29.92 in Calm     66% 0.00 in WeatherDisplay:10.37 W/m2 SCT
23:00 69.8 °F 58.3 °F 29.92 in Calm     67% 0.00 in WeatherDisplay:10.37 W/m2 SCT
23:15 69.3 °F 58.3 °F 29.92 in Calm     68% 0.00 in WeatherDisplay:10.37 W/m2 SCT
23:30 69.0 °F 58.0 °F 29.92 in Calm     68% 0.00 in WeatherDisplay:10.37 W/m2 SCT
23:45 68.5 °F 58.3 °F 29.92 in Calm     70% 0.00 in WeatherDisplay:10.37 W/m2 SCT
Piedmont Bend
Compliments of Weather Underground - 4 mb